createdAt,value
2023-03-06T00:00:34.513Z,22.13
2023-03-06T00:03:05.033Z,19.00
2023-03-06T00:05:33.662Z,18.67
2023-03-06T00:08:02.403Z,19.70
2023-03-06T00:10:33.084Z,21.63
2023-03-06T00:13:03.602Z,23.50
2023-03-06T00:15:32.379Z,25.75
2023-03-06T00:18:01.190Z,23.77
2023-03-06T00:20:31.407Z,26.42
2023-03-06T00:23:00.464Z,18.27
2023-03-06T00:25:28.866Z,21.10
2023-03-06T00:27:57.806Z,24.27
2023-03-06T00:30:26.564Z,26.98
2023-03-06T00:32:55.209Z,24.35
2023-03-06T00:35:23.800Z,21.70
2023-03-06T00:37:53.579Z,21.85
2023-03-06T00:40:22.900Z,27.15
2023-03-06T00:42:51.316Z,25.23
2023-03-06T00:45:19.937Z,23.58
2023-03-06T00:47:48.610Z,27.70
2023-03-06T00:50:17.405Z,24.20
2023-03-06T00:52:46.004Z,25.25
2023-03-06T00:55:15.791Z,21.88
2023-03-06T00:57:48.252Z,22.48
2023-03-06T01:00:20.705Z,18.48
2023-03-06T01:02:49.071Z,15.55
2023-03-06T01:05:17.730Z,15.93
2023-03-06T01:07:46.700Z,16.13
2023-03-06T01:10:16.411Z,12.85
2023-03-06T01:12:46.106Z,16.52
2023-03-06T01:15:14.999Z,14.55
2023-03-06T01:17:43.479Z,15.02
2023-03-06T01:20:14.388Z,14.57
2023-03-06T01:22:42.817Z,15.00
2023-03-06T01:25:12.222Z,10.18
2023-03-06T01:27:42.002Z,13.52
2023-03-06T01:30:11.792Z,12.73
2023-03-06T01:32:40.364Z,14.30
2023-03-06T01:35:09.502Z,14.30
2023-03-06T01:37:38.939Z,11.27
2023-03-06T01:40:08.966Z,11.90
2023-03-06T01:42:37.432Z,14.40
2023-03-06T01:45:29.573Z,12.63
2023-03-06T01:47:58.212Z,14.57
2023-03-06T01:50:26.891Z,14.82
2023-03-06T01:52:58.915Z,14.52
2023-03-06T01:55:32.203Z,14.00
2023-03-06T01:58:04.885Z,14.68
2023-03-06T02:00:34.931Z,23.83
2023-03-06T02:03:07.763Z,12.40
2023-03-06T02:05:37.471Z,15.88
2023-03-06T02:08:07.692Z,15.00
2023-03-06T02:10:36.129Z,17.30
2023-03-06T02:13:05.230Z,12.90
2023-03-06T02:15:35.370Z,13.20
2023-03-06T02:18:03.959Z,13.05
2023-03-06T02:20:37.927Z,12.40
2023-03-06T02:23:12.430Z,14.77
2023-03-06T02:25:45.916Z,16.45
2023-03-06T02:28:17.181Z,12.85
2023-03-06T02:30:47.628Z,16.23
2023-03-06T02:33:17.808Z,13.82
2023-03-06T02:35:50.756Z,12.93
2023-03-06T02:38:22.837Z,14.50
2023-03-06T02:40:54.023Z,15.27
2023-03-06T02:43:26.325Z,14.20
2023-03-06T02:45:55.391Z,14.80
2023-03-06T02:48:24.172Z,9.25
2023-03-06T02:50:52.676Z,13.82
2023-03-06T02:53:21.926Z,13.65
2023-03-06T02:55:52.449Z,14.15
2023-03-06T02:58:20.898Z,17.10
2023-03-06T03:00:50.323Z,10.23
2023-03-06T03:03:19.374Z,16.83
2023-03-06T03:05:47.925Z,17.05
2023-03-06T03:08:16.465Z,11.45
2023-03-06T03:10:45.114Z,13.00
2023-03-06T03:13:14.966Z,15.77
2023-03-06T03:15:43.419Z,14.65
2023-03-06T03:18:12.027Z,13.30
2023-03-06T03:20:43.734Z,16.45
2023-03-06T03:23:12.228Z,14.85
2023-03-06T03:25:40.702Z,15.75
2023-03-06T03:28:09.073Z,15.10
2023-03-06T03:30:39.745Z,12.30
2023-03-06T03:33:09.039Z,14.65
2023-03-06T03:35:37.825Z,16.33
2023-03-06T03:38:06.403Z,17.13
2023-03-06T03:40:34.865Z,15.10
2023-03-06T03:43:03.426Z,17.35
2023-03-06T03:45:31.830Z,17.73
2023-03-06T03:48:01.595Z,16.75
2023-03-06T03:50:29.953Z,20.20
2023-03-06T03:52:58.697Z,21.48
2023-03-06T03:55:27.499Z,19.90
2023-03-06T03:57:56.111Z,20.75
2023-03-06T04:00:24.783Z,20.02
2023-03-06T04:02:53.151Z,18.08
2023-03-06T04:05:22.846Z,22.50
2023-03-06T04:07:51.219Z,19.08
2023-03-06T04:10:19.817Z,26.50
2023-03-06T04:12:48.270Z,23.75
2023-03-06T04:15:16.597Z,23.33
2023-03-06T04:17:45.011Z,22.85
2023-03-06T04:20:14.446Z,21.48
2023-03-06T04:22:44.363Z,22.33
2023-03-06T04:25:12.755Z,27.20
2023-03-06T04:27:41.456Z,20.05
2023-03-06T04:30:11.402Z,18.58
2023-03-06T04:32:39.766Z,18.15
2023-03-06T04:35:08.809Z,17.20
2023-03-06T04:37:37.236Z,14.43
2023-03-06T04:40:09.340Z,14.30
2023-03-06T04:42:37.974Z,12.85
2023-03-06T04:45:07.299Z,14.18
2023-03-06T04:47:35.698Z,14.70
2023-03-06T04:50:04.364Z,11.90
2023-03-06T04:52:33.157Z,11.32
2023-03-06T04:55:04.158Z,13.57
2023-03-06T04:57:34.011Z,12.90
2023-03-06T05:00:02.773Z,13.48
2023-03-06T05:02:31.368Z,14.90
2023-03-06T05:04:59.716Z,16.17
2023-03-06T05:07:28.065Z,11.18
2023-03-06T05:09:56.643Z,10.60
2023-03-06T05:12:24.971Z,12.55
2023-03-06T05:14:54.856Z,11.57
2023-03-06T05:17:23.371Z,12.35
2023-03-06T05:19:51.947Z,16.25
2023-03-06T05:22:20.462Z,13.40
2023-03-06T05:24:48.765Z,13.48
2023-03-06T05:27:17.170Z,17.60
2023-03-06T05:29:45.736Z,17.80
2023-03-06T05:32:17.163Z,12.63
2023-03-06T05:34:45.636Z,14.50
2023-03-06T05:37:13.958Z,16.83
2023-03-06T05:39:44.134Z,17.55
2023-03-06T05:42:12.712Z,16.90
2023-03-06T05:44:41.726Z,16.92
2023-03-06T05:47:11.848Z,21.60
2023-03-06T05:49:41.957Z,18.83
2023-03-06T05:52:12.901Z,19.02
2023-03-06T05:54:41.646Z,23.45
2023-03-06T05:57:10.014Z,31.10
2023-03-06T05:59:38.732Z,24.65
2023-03-06T06:02:07.129Z,22.70
2023-03-06T06:04:35.489Z,21.98
2023-03-06T06:07:06.056Z,20.70
2023-03-06T06:09:34.408Z,23.48
2023-03-06T06:12:04.142Z,26.77
2023-03-06T06:14:34.895Z,29.38
2023-03-06T06:17:03.539Z,27.02
2023-03-06T06:19:32.485Z,24.77
2023-03-06T06:22:02.799Z,23.90
2023-03-06T06:24:33.124Z,24.80
2023-03-06T06:27:03.865Z,22.85
2023-03-06T06:29:33.726Z,21.63
2023-03-06T06:32:03.108Z,23.15
2023-03-06T06:34:31.978Z,19.90
2023-03-06T06:37:00.376Z,26.52
2023-03-06T06:39:28.911Z,23.77
2023-03-06T06:42:15.471Z,24.20
2023-03-06T06:44:47.643Z,21.67
2023-03-06T06:47:25.374Z,25.38
2023-03-06T06:49:57.122Z,24.52
2023-03-06T06:52:26.715Z,26.25
2023-03-06T06:54:55.136Z,27.70
2023-03-06T06:57:27.403Z,25.17
2023-03-06T06:59:55.842Z,30.10
2023-03-06T07:02:24.451Z,31.08
2023-03-06T07:05:03.638Z,31.70
2023-03-06T07:07:35.275Z,31.40
2023-03-06T07:10:05.540Z,35.40
2023-03-06T07:12:35.515Z,33.58
2023-03-06T07:15:05.234Z,35.88
2023-03-06T07:17:34.127Z,38.10
2023-03-06T07:20:02.856Z,35.97
2023-03-06T07:22:41.442Z,41.40
2023-03-06T07:25:17.190Z,42.33
2023-03-06T07:27:53.255Z,46.33
2023-03-06T07:30:23.957Z,47.28
2023-03-06T07:32:56.256Z,49.47
2023-03-06T07:35:25.852Z,48.22
2023-03-06T07:37:54.896Z,48.28
2023-03-06T07:40:23.862Z,50.45
2023-03-06T07:43:09.215Z,53.33
2023-03-06T07:45:46.821Z,46.67
2023-03-06T07:48:15.344Z,56.85
2023-03-06T07:50:43.844Z,55.63
2023-03-06T07:53:12.233Z,52.35
2023-03-06T07:55:41.406Z,58.15
2023-03-06T07:58:11.353Z,47.58
2023-03-06T08:00:39.840Z,54.22
2023-03-06T08:03:09.639Z,55.42
2023-03-06T08:05:38.118Z,52.13
2023-03-06T08:08:06.591Z,54.33
2023-03-06T08:10:35.429Z,54.10
2023-03-06T08:13:03.880Z,47.55
2023-03-06T08:15:33.624Z,44.05
2023-03-06T08:18:02.118Z,46.85
2023-03-06T08:20:30.437Z,48.97
2023-03-06T08:22:59.015Z,45.95
2023-03-06T08:25:27.405Z,48.53
2023-03-06T08:27:55.809Z,42.78
2023-03-06T08:30:24.446Z,47.85
2023-03-06T08:32:54.161Z,53.25
2023-03-06T08:35:22.796Z,49.10
2023-03-06T08:37:51.252Z,47.05
2023-03-06T08:40:20.072Z,52.30
2023-03-06T08:42:49.093Z,51.65
2023-03-06T08:45:17.918Z,48.22
2023-03-06T08:47:46.263Z,55.60
2023-03-06T08:50:16.007Z,58.33
2023-03-06T08:52:44.595Z,49.47
2023-03-06T08:55:15.043Z,46.05
2023-03-06T08:57:43.505Z,49.67
2023-03-06T09:00:14.064Z,42.92
2023-03-06T09:02:42.646Z,41.10
2023-03-06T09:05:11.532Z,37.33
2023-03-06T09:07:41.227Z,37.65
2023-03-06T09:10:15.020Z,37.38
2023-03-06T09:12:50.128Z,42.50
2023-03-06T09:15:20.990Z,28.83
2023-03-06T09:17:49.467Z,29.33
2023-03-06T09:20:18.321Z,29.70
2023-03-06T09:22:48.331Z,28.45
2023-03-06T09:25:20.374Z,26.48
2023-03-06T09:27:58.211Z,29.23
2023-03-06T09:30:30.652Z,27.67
2023-03-06T09:32:59.193Z,24.05
2023-03-06T09:35:27.577Z,22.80
2023-03-06T09:37:57.332Z,24.20
2023-03-06T09:40:39.506Z,29.02
2023-03-06T09:43:07.955Z,21.33
2023-03-06T09:45:38.022Z,24.08
2023-03-06T09:48:12.069Z,20.23
2023-03-06T09:50:45.505Z,20.50
2023-03-06T09:53:25.446Z,18.25
2023-03-06T09:56:00.699Z,19.95
2023-03-06T09:58:31.839Z,19.13
2023-03-06T10:01:03.037Z,15.88
2023-03-06T10:03:35.289Z,20.08
2023-03-06T10:06:11.228Z,21.42
2023-03-06T10:08:56.419Z,13.25
2023-03-06T10:11:28.839Z,17.55
2023-03-06T10:14:12.497Z,17.67
2023-03-06T10:16:41.304Z,25.25
2023-03-06T10:19:16.068Z,22.02
2023-03-06T10:21:52.245Z,16.48
2023-03-06T10:24:45.245Z,14.40
2023-03-06T10:27:24.156Z,14.70
2023-03-06T10:30:03.292Z,15.07
2023-03-06T10:32:48.819Z,12.20
2023-03-06T10:35:20.340Z,13.60
2023-03-06T10:37:49.414Z,17.85
2023-03-06T10:40:21.264Z,13.98
2023-03-06T10:42:58.717Z,15.90
2023-03-06T10:45:48.539Z,19.60
2023-03-06T10:48:21.272Z,20.00
2023-03-06T10:50:50.104Z,19.80
2023-03-06T10:53:25.702Z,16.45
2023-03-06T10:56:00.290Z,22.23
2023-03-06T10:58:30.175Z,14.07
2023-03-06T11:01:08.220Z,15.63
2023-03-06T11:03:37.900Z,15.57
2023-03-06T11:06:13.188Z,19.00
2023-03-06T11:08:44.574Z,15.25
2023-03-06T11:11:20.314Z,12.05
2023-03-06T11:13:58.805Z,12.77
2023-03-06T11:16:30.552Z,13.18
2023-03-06T11:19:01.237Z,11.95
2023-03-06T11:21:31.954Z,17.10
2023-03-06T11:24:06.524Z,11.13
2023-03-06T11:26:45.526Z,10.75
2023-03-06T11:29:31.543Z,8.98
2023-03-06T11:32:07.537Z,16.70
2023-03-06T11:34:42.860Z,9.27
2023-03-06T11:37:21.715Z,11.98
2023-03-06T11:39:59.409Z,10.57
2023-03-06T11:42:31.462Z,12.70
2023-03-06T11:45:10.127Z,10.05
2023-03-06T11:50:18.584Z,13.60
2023-03-06T11:52:52.288Z,8.48
2023-03-06T11:55:33.690Z,6.45
2023-03-06T11:58:26.652Z,9.00
2023-03-06T12:01:04.121Z,7.63
2023-03-06T12:03:55.817Z,6.90
2023-03-06T12:06:34.584Z,5.43
2023-03-06T12:09:20.396Z,5.35
2023-03-06T12:12:02.155Z,5.10
2023-03-06T12:14:44.375Z,9.40
2023-03-06T12:17:22.413Z,8.50
2023-03-06T12:20:17.381Z,5.30
2023-03-06T12:23:02.408Z,5.97
2023-03-06T12:25:38.782Z,8.18
2023-03-06T12:28:34.373Z,7.03
2023-03-06T12:31:19.528Z,8.07
2023-03-06T12:33:58.406Z,9.55
2023-03-06T12:36:39.687Z,6.43
2023-03-06T12:39:17.335Z,8.40
2023-03-06T12:42:00.713Z,10.02
2023-03-06T12:44:51.520Z,9.43
2023-03-06T12:47:24.859Z,6.60
2023-03-06T12:49:57.373Z,13.23
2023-03-06T12:52:30.500Z,8.73
2023-03-06T12:55:01.460Z,7.40
2023-03-06T12:57:31.149Z,8.38
2023-03-06T12:59:59.507Z,7.85
2023-03-06T13:02:49.352Z,8.20
2023-03-06T13:05:30.612Z,5.88
2023-03-06T13:08:23.033Z,5.25
2023-03-06T13:11:16.144Z,5.88
2023-03-06T13:13:46.122Z,5.65
2023-03-06T13:16:25.504Z,7.80
2023-03-06T13:19:11.058Z,3.75
2023-03-06T13:22:18.021Z,5.85
2023-03-06T13:24:46.460Z,4.57
2023-03-06T13:27:59.994Z,4.57
2023-03-06T13:30:46.163Z,7.35
2023-03-06T13:33:53.110Z,4.50
2023-03-06T13:36:25.715Z,6.45
2023-03-06T13:39:02.491Z,5.18
2023-03-06T13:41:55.504Z,8.10
2023-03-06T13:44:51.038Z,4.55
2023-03-06T13:48:06.496Z,6.95
2023-03-06T13:50:36.192Z,3.33
2023-03-06T13:53:35.200Z,3.47
2023-03-06T13:56:24.957Z,6.85
2023-03-06T13:59:18.273Z,3.22
2023-03-06T14:01:58.340Z,3.50
2023-03-06T14:04:34.531Z,3.45
2023-03-06T14:07:10.908Z,4.13
2023-03-06T14:09:44.318Z,2.28
2023-03-06T14:12:23.578Z,1.92
2023-03-06T14:14:56.960Z,8.15
2023-03-06T14:17:30.308Z,5.75
2023-03-06T14:20:02.287Z,3.30
2023-03-06T14:22:31.418Z,2.88
2023-03-06T14:25:04.614Z,3.05
2023-03-06T14:27:40.827Z,3.08
2023-03-06T14:30:13.289Z,6.90
2023-03-06T14:32:43.931Z,3.42
2023-03-06T14:35:26.044Z,2.42
2023-03-06T14:37:57.861Z,2.40
2023-03-06T14:40:32.341Z,3.10
2023-03-06T14:43:21.639Z,2.63
2023-03-06T14:48:20.853Z,2.70
2023-03-06T14:50:52.427Z,4.63
2023-03-06T14:53:25.176Z,2.50
2023-03-06T14:55:57.721Z,4.20
2023-03-06T14:58:31.568Z,3.10
2023-03-06T15:01:04.592Z,7.60
2023-03-06T15:03:43.764Z,4.28
2023-03-06T15:06:19.250Z,5.20
2023-03-06T15:08:52.130Z,6.50
2023-03-06T15:11:20.584Z,5.85
2023-03-06T15:14:02.674Z,4.55
2023-03-06T15:16:32.344Z,2.85
2023-03-06T15:19:03.858Z,6.03
2023-03-06T15:21:38.311Z,4.10
2023-03-06T15:24:31.992Z,6.82
2023-03-06T15:27:02.934Z,11.93
2023-03-06T15:29:32.018Z,12.90
2023-03-06T15:32:34.593Z,5.85
2023-03-06T15:35:37.863Z,4.00
2023-03-06T15:38:25.312Z,3.15
2023-03-06T15:40:57.864Z,8.80
2023-03-06T15:43:27.606Z,11.45
2023-03-06T15:46:00.603Z,6.65
2023-03-06T15:48:29.375Z,4.05
2023-03-06T15:50:59.109Z,5.85
2023-03-06T15:53:28.364Z,4.38
2023-03-06T15:55:59.798Z,3.97
2023-03-06T15:58:31.534Z,3.00
2023-03-06T16:01:00.163Z,5.35
2023-03-06T16:03:28.553Z,4.13
2023-03-06T16:05:57.156Z,3.08
2023-03-06T16:08:27.723Z,5.15
2023-03-06T16:10:56.127Z,3.03
2023-03-06T16:13:28.127Z,3.47
2023-03-06T16:15:57.120Z,16.60
2023-03-06T16:18:25.496Z,24.92
2023-03-06T16:20:53.917Z,18.70
2023-03-06T16:23:22.442Z,21.40
2023-03-06T16:25:52.159Z,19.20
2023-03-06T16:28:20.656Z,26.73
2023-03-06T16:30:49.121Z,27.92
2023-03-06T16:33:17.533Z,26.55
2023-03-06T16:35:47.167Z,24.90
2023-03-06T16:38:16.729Z,26.00
2023-03-06T16:40:45.099Z,20.27
2023-03-06T16:43:16.125Z,25.08
2023-03-06T16:45:47.400Z,20.38
2023-03-06T16:48:17.816Z,24.83
2023-03-06T16:50:46.453Z,25.83
2023-03-06T16:53:21.091Z,22.50
2023-03-06T16:55:49.627Z,27.42
2023-03-06T16:58:19.370Z,23.73
2023-03-06T17:00:48.266Z,23.65
2023-03-06T17:03:17.959Z,25.33
2023-03-06T17:05:46.333Z,25.63
2023-03-06T17:08:14.834Z,27.48
2023-03-06T17:10:43.196Z,23.08
2023-03-06T17:13:12.378Z,25.50
2023-03-06T17:15:42.174Z,28.40
2023-03-06T17:18:10.557Z,27.52
2023-03-06T17:20:39.038Z,26.73
2023-03-06T17:23:07.495Z,28.92
2023-03-06T17:25:35.861Z,38.30
2023-03-06T17:28:04.367Z,35.20
2023-03-06T17:30:33.023Z,37.97
2023-03-06T17:33:02.825Z,35.25
2023-03-06T17:35:31.345Z,33.25
2023-03-06T17:37:59.811Z,32.90
2023-03-06T17:40:29.587Z,30.50
2023-03-06T17:42:58.043Z,34.90
2023-03-06T17:45:28.906Z,35.47
2023-03-06T17:47:57.605Z,33.95
2023-03-06T17:50:27.381Z,37.28
2023-03-06T17:52:55.697Z,34.40
2023-03-06T17:55:24.311Z,34.35
2023-03-06T17:57:53.357Z,35.38
2023-03-06T18:00:23.815Z,35.08
2023-03-06T18:02:52.176Z,39.95
2023-03-06T18:05:21.745Z,37.78
2023-03-06T18:07:51.452Z,34.63
2023-03-06T18:10:20.165Z,40.53
2023-03-06T18:12:48.707Z,38.00
2023-03-06T18:15:17.594Z,42.03
2023-03-06T18:17:46.523Z,31.80
2023-03-06T18:20:14.997Z,31.27
2023-03-06T18:22:43.385Z,34.58
2023-03-06T18:25:13.186Z,40.60
2023-03-06T18:27:41.561Z,29.90
2023-03-06T18:30:11.218Z,33.20
2023-03-06T18:32:39.598Z,35.78
2023-03-06T18:35:09.395Z,36.92
2023-03-06T18:37:37.978Z,41.65
2023-03-06T18:40:07.651Z,36.75
2023-03-06T18:42:37.429Z,44.85
2023-03-06T18:45:07.294Z,46.42
2023-03-06T18:47:35.663Z,47.95
2023-03-06T18:50:04.533Z,52.92
2023-03-06T18:52:32.957Z,51.47
2023-03-06T18:55:01.774Z,57.05
2023-03-06T18:57:30.601Z,47.63
2023-03-06T19:00:00.389Z,53.40
2023-03-06T19:02:29.094Z,50.88
2023-03-06T19:04:57.616Z,50.15
2023-03-06T19:07:26.276Z,49.03
2023-03-06T19:09:55.071Z,48.92
2023-03-06T19:12:23.535Z,54.25
2023-03-06T19:14:51.967Z,48.75
2023-03-06T19:17:23.959Z,54.42
2023-03-06T19:19:54.922Z,47.90
2023-03-06T19:22:24.166Z,51.35
2023-03-06T19:24:52.604Z,46.17
2023-03-06T19:27:21.379Z,42.45
2023-03-06T19:29:49.865Z,42.28
2023-03-06T19:32:18.434Z,42.72
2023-03-06T19:34:50.775Z,34.22
2023-03-06T19:37:19.297Z,37.28
2023-03-06T19:39:49.143Z,35.58
2023-03-06T19:42:17.600Z,37.97
2023-03-06T19:44:47.153Z,43.60
2023-03-06T19:47:15.514Z,34.83
2023-03-06T19:49:43.923Z,38.08
2023-03-06T19:52:13.881Z,41.38
2023-03-06T19:54:42.446Z,32.85
2023-03-06T19:57:11.337Z,39.72
2023-03-06T19:59:40.040Z,36.63
2023-03-06T20:02:10.716Z,34.85
2023-03-06T20:04:39.383Z,32.55
2023-03-06T20:07:08.010Z,36.85
2023-03-06T20:09:38.018Z,32.33
2023-03-06T20:12:08.329Z,31.52
2023-03-06T20:14:37.224Z,31.92
2023-03-06T20:17:05.982Z,31.60
2023-03-06T20:19:35.184Z,34.53
2023-03-06T20:22:03.914Z,31.20
2023-03-06T20:24:32.584Z,30.25
2023-03-06T20:27:05.653Z,32.50
2023-03-06T20:29:35.666Z,41.13
2023-03-06T20:32:04.869Z,31.15
2023-03-06T20:34:35.712Z,32.60
2023-03-06T20:37:04.188Z,36.22
2023-03-06T20:39:35.673Z,39.88
2023-03-06T20:42:06.690Z,29.52
2023-03-06T20:44:36.399Z,30.83
2023-03-06T20:47:06.341Z,32.30
2023-03-06T20:49:34.847Z,31.55
2023-03-06T20:52:04.103Z,32.45
2023-03-06T20:54:34.162Z,33.25
2023-03-06T20:57:02.934Z,31.35
2023-03-06T20:59:34.459Z,27.08
2023-03-06T21:02:27.519Z,26.92
2023-03-06T21:05:01.005Z,29.55
2023-03-06T21:07:31.073Z,26.98
2023-03-06T21:09:59.824Z,31.17
2023-03-06T21:12:28.502Z,29.67
2023-03-06T21:14:59.188Z,30.02
2023-03-06T21:17:30.266Z,31.08
2023-03-06T21:19:58.963Z,33.90
2023-03-06T21:22:30.230Z,25.60
2023-03-06T21:24:59.646Z,29.58
2023-03-06T21:27:28.633Z,38.67
2023-03-06T21:29:58.466Z,27.92
2023-03-06T21:32:28.149Z,33.28
2023-03-06T21:34:56.905Z,29.33
2023-03-06T21:37:25.666Z,28.08
2023-03-06T21:39:54.367Z,32.25
2023-03-06T21:42:22.716Z,34.75
2023-03-06T21:44:51.349Z,34.30
2023-03-06T21:47:21.197Z,36.30
2023-03-06T21:49:49.857Z,33.55
2023-03-06T21:52:18.419Z,37.25
2023-03-06T21:54:49.724Z,37.63
2023-03-06T21:57:18.500Z,38.42
2023-03-06T21:59:46.878Z,37.95
2023-03-06T22:02:16.301Z,44.92
2023-03-06T22:04:50.921Z,41.38
2023-03-06T22:07:20.290Z,43.85
2023-03-06T22:09:48.911Z,36.83
2023-03-06T22:12:17.776Z,36.97
2023-03-06T22:14:46.198Z,45.67
2023-03-06T22:17:14.840Z,44.65
2023-03-06T22:19:43.806Z,41.22
2023-03-06T22:22:13.710Z,46.22
2023-03-06T22:24:42.056Z,47.42
2023-03-06T22:27:10.545Z,49.05
2023-03-06T22:29:39.049Z,52.00
2023-03-06T22:32:08.781Z,59.05
2023-03-06T22:34:37.568Z,52.70
2023-03-06T22:37:06.072Z,59.70
2023-03-06T22:39:35.804Z,59.90
2023-03-06T22:42:04.729Z,64.30
2023-03-06T22:44:33.315Z,50.25
2023-03-06T22:47:01.940Z,65.32
2023-03-06T22:49:30.293Z,63.28
2023-03-06T22:51:58.924Z,66.40
2023-03-06T22:54:27.466Z,60.88
2023-03-06T22:56:57.390Z,67.18
2023-03-06T22:59:25.756Z,63.58
2023-03-06T23:01:54.286Z,70.50
2023-03-06T23:04:22.848Z,66.15
2023-03-06T23:06:51.391Z,74.88
2023-03-06T23:09:22.456Z,77.60
2023-03-06T23:11:51.009Z,72.88
2023-03-06T23:14:20.984Z,77.68
2023-03-06T23:16:49.399Z,70.05
2023-03-06T23:19:18.704Z,70.35
2023-03-06T23:21:47.069Z,84.25
2023-03-06T23:24:16.932Z,67.13
2023-03-06T23:26:45.684Z,70.32
2023-03-06T23:29:14.336Z,78.68
2023-03-06T23:31:44.184Z,82.78
2023-03-06T23:34:12.630Z,75.32
2023-03-06T23:36:41.611Z,70.47
2023-03-06T23:39:10.036Z,78.75
2023-03-06T23:41:38.723Z,70.40
2023-03-06T23:44:07.269Z,75.00
2023-03-06T23:46:35.700Z,66.70
2023-03-06T23:49:06.178Z,72.32
2023-03-06T23:51:34.610Z,74.68
2023-03-06T23:54:03.327Z,72.93
2023-03-06T23:56:31.847Z,74.05
2023-03-06T23:59:00.468Z,70.72
